Time;durP1;ratioP1;P1;durP2;ratioP2;P2;SDS_P1;SDS_P2;PMS_P1;PMS_P2;Temp;Humidity;BMP_temperature;BMP_pressure;BME280_temperature;BME280_humidity;BME280_pressure;Samples;Min_cycle;Max_cycle;Signal;HPM_P1;HPM_P2
2022/06/20 00:00:43;;;;;;;7.90;4.40;;;;;;;21.41;75.14;99318.28;5041698;28;20232;-72
2022/06/20 00:03:20;;;;;;;9.93;4.13;;;;;;;21.27;75.46;99319.84;5051622;28;20182;-72
2022/06/20 00:05:46;;;;;;;9.37;3.80;;;;;;;21.39;76.45;99315.84;5050487;28;20221;-72
2022/06/20 00:08:11;;;;;;;11.73;4.83;;;;;;;21.43;77.13;99311.06;5050412;28;20201;-72
2022/06/20 00:10:41;;;;;;;7.10;4.17;;;;;;;21.42;77.46;99312.88;5039688;28;20259;-70
2022/06/20 00:13:14;;;;;;;9.17;3.77;;;;;;;21.39;77.60;99302.75;5042670;28;20227;-72
2022/06/20 00:15:40;;;;;;;10.87;4.73;;;;;;;21.34;78.06;99301.66;5048234;28;20177;-72
2022/06/20 00:18:06;;;;;;;7.03;4.17;;;;;;;21.18;79.14;99289.50;5048877;28;20204;-72
2022/06/20 00:20:32;;;;;;;10.20;4.27;;;;;;;21.21;78.82;99292.59;5041239;28;20225;-71
2022/06/20 00:22:57;;;;;;;8.67;4.23;;;;;;;21.14;79.42;99285.59;5048437;28;20551;-72
2022/06/20 00:25:23;;;;;;;11.03;4.07;;;;;;;21.05;80.26;99292.66;5051318;28;20692;-73
2022/06/20 00:27:51;;;;;;;7.50;4.57;;;;;;;21.01;80.54;99286.16;5048943;28;20272;-72
2022/06/20 00:30:18;;;;;;;9.03;4.57;;;;;;;20.89;81.71;99283.91;5040463;28;20201;-72
2022/06/20 00:32:43;;;;;;;8.63;3.97;;;;;;;20.72;82.50;99282.38;5049757;28;20173;-72
2022/06/20 00:35:10;;;;;;;7.50;3.93;;;;;;;20.68;82.94;99284.47;5050653;28;20192;-74
2022/06/20 00:37:36;;;;;;;10.93;4.77;;;;;;;20.66;83.10;99275.19;5048780;28;20719;-72
2022/06/20 00:40:04;;;;;;;8.97;4.10;;;;;;;20.57;82.08;99277.81;5050818;28;20185;-72
2022/06/20 00:42:29;;;;;;;8.60;3.77;;;;;;;20.57;81.74;99283.03;5022625;28;20221;-72
2022/06/20 00:45:01;;;;;;;13.03;4.63;;;;;;;20.57;81.23;99288.25;5050513;28;20614;-72
2022/06/20 00:47:32;;;;;;;7.37;3.80;;;;;;;20.67;80.54;99282.03;5049885;28;20268;-72
2022/06/20 00:50:11;;;;;;;10.17;4.10;;;;;;;20.68;79.39;99289.69;5050565;28;20185;-72
2022/06/20 00:52:43;;;;;;;8.60;4.47;;;;;;;20.79;78.56;99297.19;5039636;28;20653;-72
2022/06/20 00:55:21;;;;;;;10.07;3.23;;;;;;;20.84;77.89;99320.22;5050091;28;20189;-72
2022/06/20 00:57:51;;;;;;;13.33;4.50;;;;;;;20.71;78.21;99336.41;5061951;28;20226;-72
2022/06/20 01:00:23;;;;;;;9.37;4.03;;;;;;;20.72;78.29;99329.41;5040220;28;20694;-73
2022/06/20 01:02:57;;;;;;;7.50;3.60;;;;;;;20.78;78.07;99326.13;5049366;28;20636;-74
2022/06/20 01:05:35;;;;;;;10.70;4.03;;;;;;;20.70;77.94;99315.66;5049449;28;20624;-72
2022/06/20 01:08:07;;;;;;;7.50;3.53;;;;;;;20.70;77.89;99313.03;5050037;28;20192;-73
2022/06/20 01:10:42;;;;;;;8.87;3.10;;;;;;;20.68;77.77;99320.22;5035062;28;20320;-72
2022/06/20 01:13:14;;;;;;;10.10;3.60;;;;;;;20.68;78.18;99334.13;5033451;28;20176;-73
2022/06/20 01:15:42;;;;;;;9.83;3.80;;;;;;;20.86;77.25;99354.81;5044115;28;20200;-72
2022/06/20 01:18:18;;;;;;;6.30;3.43;;;;;;;20.88;76.92;99375.59;5049640;28;20656;-73
2022/06/20 01:20:46;;;;;;;8.17;3.80;;;;;;;20.96;77.12;99417.38;5038971;28;20282;-72
2022/06/20 01:23:44;;;;;;;7.87;3.83;;;;;;;20.79;79.75;99474.09;5049945;28;20536;-72
2022/06/20 01:26:35;;;;;;;9.27;4.17;;;;;;;20.57;81.66;99478.97;4996627;28;1062946;-73
2022/06/20 01:29:04;;;;;;;7.67;3.67;;;;;;;20.34;80.08;99484.03;5051126;28;20228;-72
2022/06/20 01:31:32;;;;;;;8.70;3.47;;;;;;;20.23;78.24;99521.75;5040168;28;20279;-72
2022/06/20 01:33:59;;;;;;;14.30;3.70;;;;;;;19.96;78.23;99509.78;5050760;28;20188;-73
2022/06/20 01:39:14;;;;;;;7.40;3.20;;;;;;;19.57;80.38;99513.66;5051053;28;20211;-72
2022/06/20 01:44:24;;;;;;;7.93;3.30;;;;;;;19.23;82.80;99539.75;5050625;28;20247;-73
2022/06/20 01:46:50;;;;;;;8.13;3.13;;;;;;;19.13;83.20;99560.69;5050564;28;20181;-73
2022/06/20 01:49:22;;;;;;;12.87;3.17;;;;;;;19.16;82.70;99536.91;5050545;28;20181;-73
2022/06/20 01:52:06;;;;;;;11.67;3.00;;;;;;;18.91;81.45;99567.22;5039371;28;20225;-72
2022/06/20 01:54:36;;;;;;;13.87;3.43;;;;;;;18.56;82.59;99541.00;5049674;28;20683;-72
2022/06/20 01:57:03;;;;;;;12.73;3.23;;;;;;;18.47;83.37;99554.91;5062785;28;20200;-72
2022/06/20 01:59:40;;;;;;;7.40;2.70;;;;;;;18.28;84.09;99554.06;5050761;28;20194;-72
2022/06/20 02:02:06;;;;;;;7.50;2.63;;;;;;;18.31;83.65;99545.16;5025236;28;20276;-72
2022/06/20 02:04:35;;;;;;;6.77;3.00;;;;;;;18.26;84.21;99509.16;5050405;28;20189;-72
2022/06/20 02:07:02;;;;;;;11.77;3.30;;;;;;;18.31;83.62;99490.50;5050328;28;20609;-72
2022/06/20 02:09:28;;;;;;;11.03;3.13;;;;;;;18.40;83.37;99468.75;5031536;28;20180;-73
2022/06/20 02:11:54;;;;;;;9.87;3.10;;;;;;;18.50;82.67;99458.25;5034707;28;20221;-73
2022/06/20 02:14:31;;;;;;;6.83;2.73;;;;;;;18.62;81.65;99437.97;5050438;28;20185;-72
2022/06/20 02:17:04;;;;;;;8.57;2.87;;;;;;;18.63;81.10;99419.63;5050025;28;20189;-73
2022/06/20 02:19:34;;;;;;;8.00;3.00;;;;;;;18.68;81.16;99419.97;5054316;28;20271;-73
2022/06/20 02:22:05;;;;;;;7.27;2.93;;;;;;;18.70;81.16;99419.81;5029948;28;20256;-73
2022/06/20 02:24:35;;;;;;;9.07;2.70;;;;;;;18.78;80.96;99416.44;5053992;28;20328;-73
2022/06/20 02:27:03;;;;;;;8.23;3.00;;;;;;;18.83;80.58;99412.41;5052442;28;20594;-73
2022/06/20 02:29:30;;;;;;;11.37;3.37;;;;;;;18.91;80.41;99416.88;5053372;28;20680;-72
2022/06/20 02:32:00;;;;;;;8.20;3.17;;;;;;;18.97;80.12;99418.06;5042828;28;20233;-73
2022/06/20 02:34:29;;;;;;;7.53;3.13;;;;;;;19.02;79.34;99410.59;5052357;28;20173;-73
2022/06/20 02:36:57;;;;;;;9.73;3.00;;;;;;;19.10;79.31;99405.44;5053460;28;20296;-73
2022/06/20 02:39:23;;;;;;;7.43;3.07;;;;;;;19.17;78.39;99393.38;5052360;28;20255;-74
2022/06/20 02:41:57;;;;;;;5.90;2.33;;;;;;;19.31;77.62;99378.09;5030720;28;20237;-73
2022/06/20 02:44:24;;;;;;;9.03;3.50;;;;;;;19.34;77.62;99372.59;5053595;28;20181;-73
2022/06/20 02:46:51;;;;;;;8.63;3.50;;;;;;;19.29;77.74;99370.44;5053307;28;20181;-74
2022/06/20 02:49:21;;;;;;;6.63;3.17;;;;;;;19.38;77.21;99352.22;5053851;28;20268;-75
2022/06/20 02:51:50;;;;;;;9.20;2.93;;;;;;;19.39;76.99;99349.47;5042044;28;20229;-73
2022/06/20 02:54:20;;;;;;;5.73;2.60;;;;;;;19.50;76.83;99367.41;5050665;28;20269;-74
2022/06/20 02:56:51;;;;;;;9.47;3.00;;;;;;;19.38;77.75;99376.50;5064983;28;20192;-73
2022/06/20 02:59:21;;;;;;;6.97;3.03;;;;;;;19.37;77.49;99380.09;5040450;28;20216;-74
2022/06/20 03:02:01;;;;;;;10.73;3.20;;;;;;;19.40;77.07;99385.00;5031928;28;20684;-73
2022/06/20 03:04:28;;;;;;;7.37;2.53;;;;;;;19.27;77.42;99380.22;5053694;28;20177;-73
2022/06/20 03:07:02;;;;;;;8.93;3.13;;;;;;;19.20;78.60;99371.38;5051461;28;20268;-73
2022/06/20 03:09:34;;;;;;;6.60;2.83;;;;;;;19.27;78.45;99375.00;5047219;28;20239;-72
2022/06/20 03:12:04;;;;;;;6.40;2.40;;;;;;;19.26;78.38;99377.78;5035204;28;20694;-74
2022/06/20 03:14:36;;;;;;;7.37;3.20;;;;;;;19.34;78.34;99378.63;5048584;28;20280;-73
2022/06/20 03:17:03;;;;;;;7.00;2.70;;;;;;;19.31;78.37;99373.72;5041019;28;20689;-74
2022/06/20 03:19:32;;;;;;;7.17;2.50;;;;;;;19.25;78.58;99371.75;5052734;28;20239;-74
2022/06/20 03:22:01;;;;;;;11.73;3.00;;;;;;;19.11;79.51;99339.25;5041806;28;20724;-73
2022/06/20 03:24:28;;;;;;;6.20;2.70;;;;;;;19.13;79.36;99323.50;5052597;28;20229;-72
2022/06/20 03:26:54;;;;;;;4.13;2.57;;;;;;;19.12;79.11;99332.28;5052401;28;20657;-74
2022/06/20 03:29:20;;;;;;;6.57;2.60;;;;;;;19.15;79.60;99344.97;5050270;28;20250;-73
2022/06/20 03:31:45;;;;;;;7.73;2.90;;;;;;;19.10;79.47;99349.84;5020777;28;20586;-73
2022/06/20 03:34:12;;;;;;;11.13;3.13;;;;;;;19.24;78.40;99336.22;5052702;28;20185;-73
2022/06/20 03:36:39;;;;;;;7.63;2.60;;;;;;;19.41;77.61;99344.91;5052232;28;20292;-74
2022/06/20 03:39:05;;;;;;;7.83;2.40;;;;;;;19.39;77.39;99346.03;5052673;28;20216;-73
2022/06/20 03:41:31;;;;;;;7.33;2.50;;;;;;;19.42;77.11;99353.53;5031846;28;20704;-73
2022/06/20 03:44:07;;;;;;;4.90;2.20;;;;;;;19.40;77.03;99345.88;5052451;28;20186;-74
2022/06/20 03:46:41;;;;;;;10.80;2.97;;;;;;;19.30;77.70;99358.22;5052153;28;20169;-73
2022/06/20 03:49:14;;;;;;;8.47;3.07;;;;;;;19.39;76.95;99362.50;5053206;28;20189;-73
2022/06/20 03:52:00;;;;;;;6.60;2.90;;;;;;;19.54;76.43;99362.69;5030776;28;20232;-73
2022/06/20 03:54:54;;;;;;;6.53;2.87;;;;;;;19.54;76.32;99373.13;5052881;28;20215;-73
2022/06/20 03:57:49;;;;;;;6.10;2.63;;;;;;;19.60;77.14;99382.94;5066022;28;20673;-73
2022/06/20 04:00:25;;;;;;;10.70;3.13;;;;;;;19.79;77.31;99340.06;5034364;28;20565;-60
2022/06/20 04:03:21;;;;;;;8.07;3.13;;;;;;;19.90;76.39;99357.22;5036997;28;20631;-61
2022/06/20 04:05:55;;;;;;;10.97;3.50;;;;;;;19.70;75.72;99351.47;5045402;28;20210;-61
2022/06/20 04:11:23;;;;;;;6.40;3.20;;;;;;;19.93;74.56;99396.06;5040881;28;20280;-61
2022/06/20 04:14:10;;;;;;;6.63;2.83;;;;;;;19.94;75.34;99409.91;5044937;28;20173;-60
2022/06/20 04:16:48;;;;;;;9.37;2.80;;;;;;;19.67;76.58;99419.63;5051604;28;20246;-61
2022/06/20 04:19:21;;;;;;;8.60;3.03;;;;;;;19.82;76.69;99451.97;5050769;28;20177;-61
2022/06/20 04:22:01;;;;;;;7.43;3.00;;;;;;;19.94;76.04;99464.72;5029190;28;20714;-61
2022/06/20 04:24:32;;;;;;;7.77;3.30;;;;;;;19.91;75.40;99467.66;5050658;28;20676;-61
2022/06/20 04:27:11;;;;;;;5.93;2.90;;;;;;;19.82;75.37;99475.44;5051285;28;20268;-59
2022/06/20 04:29:44;;;;;;;12.57;3.10;;;;;;;19.80;75.66;99503.47;5050580;28;20208;-60
2022/06/20 04:32:35;;;;;;;9.73;3.20;;;;;;;19.93;74.46;99547.44;5026188;28;20233;-59
2022/06/20 04:35:10;;;;;;;11.20;3.10;;;;;;;20.18;72.42;99547.53;5050610;28;20188;-61
2022/06/20 04:37:46;;;;;;;11.00;3.23;;;;;;;20.19;72.52;99538.69;5049772;28;20262;-60
2022/06/20 04:40:30;;;;;;;7.40;2.67;;;;;;;20.10;73.27;99526.59;5041207;28;20215;-60
2022/06/20 04:43:17;;;;;;;9.40;3.60;;;;;;;20.13;73.09;99529.72;5056269;28;20196;-60
2022/06/20 04:45:54;;;;;;;5.17;2.60;;;;;;;20.27;72.62;99540.53;5063755;28;20193;-60
2022/06/20 04:48:22;;;;;;;13.27;3.70;;;;;;;19.93;75.31;99525.72;5050159;28;20188;-59
2022/06/20 04:50:54;;;;;;;10.47;3.40;;;;;;;19.81;76.33;99541.66;5036821;28;20274;-61
2022/06/20 04:53:28;;;;;;;10.03;3.23;;;;;;;19.95;76.33;99549.88;5040730;28;20268;-61
2022/06/20 04:55:57;;;;;;;4.83;2.33;;;;;;;20.04;76.15;99530.66;5056817;28;20330;-60
2022/06/20 04:58:27;;;;;;;8.93;3.60;;;;;;;20.22;75.81;99521.88;5057166;28;20609;-60
2022/06/20 05:00:53;;;;;;;8.70;3.00;;;;;;;20.00;76.34;99496.22;5035744;28;20235;-60
2022/06/20 05:03:22;;;;;;;7.23;2.80;;;;;;;20.09;76.53;99493.63;5047738;28;20174;-61
2022/06/20 05:05:51;;;;;;;5.33;2.60;;;;;;;20.20;76.20;99506.38;5048447;28;20637;-59
2022/06/20 05:08:32;;;;;;;8.93;2.33;;;;;;;20.25;75.32;99518.97;5049591;28;20181;-61
2022/06/20 05:11:33;;;;;;;6.53;3.10;;;;;;;20.29;75.33;99539.38;5031162;28;20221;-59
2022/06/20 05:14:44;;;;;;;10.87;3.27;;;;;;;20.13;77.45;99540.16;5046532;28;20288;-61
2022/06/20 05:17:21;;;;;;;6.93;2.80;;;;;;;19.93;78.69;99576.16;5043094;28;20212;-60
2022/06/20 05:19:50;;;;;;;8.30;2.83;;;;;;;19.95;79.04;99576.78;5050414;28;20648;-60
2022/06/20 05:22:24;;;;;;;6.23;2.70;;;;;;;19.99;78.79;99579.91;5022533;28;20641;-60
2022/06/20 05:24:52;;;;;;;8.20;2.70;;;;;;;19.97;79.39;99567.03;5036176;28;20576;-60
2022/06/20 05:27:23;;;;;;;10.80;3.03;;;;;;;19.78;80.37;99543.75;5050828;28;20220;-61
2022/06/20 05:29:52;;;;;;;9.53;3.33;;;;;;;19.89;80.89;99563.56;5049588;28;20202;-60
2022/06/20 05:32:33;;;;;;;10.07;3.67;;;;;;;19.74;82.86;99582.38;5039708;28;20272;-60
2022/06/20 05:35:05;;;;;;;6.13;3.10;;;;;;;19.94;81.54;99590.81;5049727;28;20177;-60
2022/06/20 05:37:42;;;;;;;7.60;2.67;;;;;;;20.11;80.21;99576.03;5050599;28;20228;-59
2022/06/20 05:40:31;;;;;;;5.87;2.50;;;;;;;20.25;78.96;99558.13;5039704;28;20208;-60
2022/06/20 05:42:57;;;;;;;7.07;2.50;;;;;;;20.46;77.78;99553.25;5050113;28;20186;-60
2022/06/20 05:45:24;;;;;;;3.70;2.17;;;;;;;20.51;77.40;99571.06;5050950;28;20234;-61
2022/06/20 05:47:54;;;;;;;5.20;2.23;;;;;;;20.40;78.11;99569.56;5049268;28;20235;-62
2022/06/20 05:50:25;;;;;;;6.43;2.60;;;;;;;20.59;77.63;99567.63;5039386;28;20216;-60
2022/06/20 05:52:51;;;;;;;9.47;2.60;;;;;;;20.61;77.38;99573.53;5038891;28;20181;-61
2022/06/20 05:55:24;;;;;;;4.10;2.30;;;;;;;20.59;78.04;99580.72;5054208;28;20177;-64
2022/06/20 05:57:50;;;;;;;7.03;2.50;;;;;;;20.45;78.86;99587.38;5062676;28;20664;-65
2022/06/20 06:00:20;;;;;;;6.50;2.47;;;;;;;20.37;78.81;99577.75;5053888;28;20190;-64
2022/06/20 06:02:53;;;;;;;4.60;2.30;;;;;;;20.34;78.56;99577.25;5042437;28;20193;-64
2022/06/20 06:05:38;;;;;;;3.70;2.40;;;;;;;20.37;78.98;99590.81;5059693;28;20501;-64
2022/06/20 06:08:15;;;;;;;6.77;2.30;;;;;;;20.20;80.67;99608.22;5050593;28;20221;-65
2022/06/20 06:10:48;;;;;;;5.80;2.57;;;;;;;20.11;82.14;99624.84;5043151;28;20293;-64
2022/06/20 06:13:36;;;;;;;8.13;2.47;;;;;;;19.96;83.20;99632.44;5041719;28;20307;-65
2022/06/20 06:19:13;;;;;;;7.93;2.60;;;;;;;19.97;86.33;99621.00;5052984;28;20196;-67
2022/06/20 06:21:38;;;;;;;12.47;2.77;;;;;;;20.18;87.96;99601.53;5034261;28;20246;-65
2022/06/20 06:24:06;;;;;;;6.33;2.83;;;;;;;20.00;89.57;99578.94;5053381;28;20169;-66
2022/06/20 06:26:33;;;;;;;10.40;3.73;;;;;;;20.16;89.68;99583.41;5052831;28;20253;-66
2022/06/20 06:28:58;;;;;;;6.83;2.70;;;;;;;20.22;90.69;99555.81;5052818;28;20213;-66
2022/06/20 06:31:29;;;;;;;8.00;3.00;;;;;;;20.12;88.30;99538.53;5037326;28;20237;-64
2022/06/20 06:34:11;;;;;;;9.03;3.37;;;;;;;19.98;95.34;99518.25;5042743;28;20209;-63
2022/06/20 06:36:53;;;;;;;10.30;3.17;;;;;;;20.03;93.01;99504.72;5052072;28;20223;-63
2022/06/20 06:39:25;;;;;;;5.63;3.07;;;;;;;20.04;92.99;99493.31;5053815;28;20195;-62
2022/06/20 06:41:55;;;;;;;4.30;2.53;;;;;;;20.14;94.23;99500.03;5037197;28;20311;-64
2022/06/20 06:44:35;;;;;;;6.23;2.93;;;;;;;20.24;92.52;99512.09;5052714;28;20274;-64
2022/06/20 06:47:00;;;;;;;6.27;3.03;;;;;;;20.18;93.01;99534.47;5044200;28;20189;-64
2022/06/20 06:49:31;;;;;;;9.77;2.70;;;;;;;20.05;93.77;99542.72;5053557;28;20181;-67
2022/06/20 06:52:28;;;;;;;7.47;3.13;;;;;;;19.86;90.59;99567.31;5021870;28;20670;-64
2022/06/20 06:55:01;;;;;;;6.50;2.23;;;;;;;19.99;92.78;99579.91;5054790;28;20212;-62
2022/06/20 06:57:43;;;;;;;8.40;2.63;;;;;;;19.95;92.81;99586.44;5057034;28;20202;-64
2022/06/20 07:00:19;;;;;;;7.90;2.60;;;;;;;20.20;93.36;99583.91;5021616;28;20271;-62
2022/06/20 07:02:59;;;;;;;10.73;2.50;;;;;;;19.99;91.38;99587.75;5010896;28;20640;-62
2022/06/20 07:05:33;;;;;;;5.97;2.50;;;;;;;20.04;91.58;99582.88;5053391;28;20232;-63
2022/06/20 07:08:11;;;;;;;4.87;2.43;;;;;;;20.08;91.29;99571.16;5051591;28;20185;-62
2022/06/20 07:10:48;;;;;;;7.07;2.90;;;;;;;20.23;89.47;99553.06;5034155;28;20224;-62
2022/06/20 07:13:45;;;;;;;7.10;2.50;;;;;;;20.41;88.44;99550.31;5044925;28;20201;-62
2022/06/20 07:16:22;;;;;;;8.47;2.80;;;;;;;20.25;88.90;99561.53;5036817;28;20302;-64
2022/06/20 07:18:52;;;;;;;9.87;2.90;;;;;;;20.30;89.11;99574.13;5041744;28;20177;-63
2022/06/20 07:21:21;;;;;;;7.37;3.17;;;;;;;20.55;89.99;99587.25;5040849;28;20572;-64
2022/06/20 07:23:50;;;;;;;5.80;3.00;;;;;;;20.84;90.25;99586.81;5048731;28;20635;-63
2022/06/20 07:26:21;;;;;;;7.03;2.83;;;;;;;20.83;84.33;99589.59;5052430;28;20221;-62
2022/06/20 07:28:54;;;;;;;5.67;2.63;;;;;;;20.78;83.44;99583.03;5052693;28;20229;-62
2022/06/20 07:31:38;;;;;;;5.30;2.43;;;;;;;20.92;85.90;99581.56;5004121;28;20244;-64
2022/06/20 07:34:22;;;;;;;5.63;2.73;;;;;;;20.84;87.15;99578.13;5035256;28;20217;-63
2022/06/20 07:36:54;;;;;;;8.97;2.87;;;;;;;20.83;87.36;99585.19;5040449;28;20209;-63
2022/06/20 07:39:25;;;;;;;5.97;3.10;;;;;;;20.68;87.24;99578.91;5051182;28;20181;-65
2022/06/20 07:42:25;;;;;;;7.47;2.63;;;;;;;20.75;90.18;99591.22;5033256;28;20701;-62
2022/06/20 07:45:02;;;;;;;4.70;2.80;;;;;;;20.85;89.76;99605.91;5047797;28;20190;-63
2022/06/20 07:47:39;;;;;;;9.37;2.80;;;;;;;21.31;88.15;99621.94;5044195;28;20181;-63
2022/06/20 07:50:14;;;;;;;11.47;3.00;;;;;;;21.21;87.57;99636.97;5040581;28;20246;-64
2022/06/20 07:52:45;;;;;;;8.10;2.70;;;;;;;21.28;85.95;99646.63;5051200;28;20181;-63
2022/06/20 07:55:17;;;;;;;6.50;3.00;;;;;;;21.35;84.79;99656.44;5052762;28;20200;-63
2022/06/20 07:57:54;;;;;;;6.90;2.87;;;;;;;21.09;84.63;99666.06;5043337;28;20212;-62
2022/06/20 08:00:26;;;;;;;9.73;3.00;;;;;;;20.91;87.65;99668.84;5039130;28;20594;-63
2022/06/20 08:03:18;;;;;;;7.47;2.50;;;;;;;20.70;90.94;99681.50;5035914;28;20261;-64
2022/06/20 08:05:48;;;;;;;5.83;2.30;;;;;;;19.82;97.85;99672.94;5046459;28;20185;-63
2022/06/20 08:08:26;;;;;;;4.87;2.37;;;;;;;19.87;100.00;99668.13;5050605;28;20185;-64
2022/06/20 08:11:02;;;;;;;4.53;3.00;;;;;;;20.00;99.73;99675.53;5040140;28;20230;-63
2022/06/20 08:13:39;;;;;;;5.50;2.07;;;;;;;20.03;98.63;99664.75;5044028;28;20279;-63
2022/06/20 08:16:13;;;;;;;3.13;1.90;;;;;;;20.24;96.75;99671.38;5030773;28;20867;-63
2022/06/20 08:18:38;;;;;;;2.73;1.63;;;;;;;20.05;96.73;99670.66;5043881;28;20178;-64
2022/06/20 08:21:12;;;;;;;4.00;1.70;;;;;;;19.96;97.94;99675.03;5042812;28;20745;-62
2022/06/20 08:23:45;;;;;;;2.10;1.90;;;;;;;19.77;100.00;99675.19;5055317;28;20178;-62
2022/06/20 08:26:25;;;;;;;3.53;1.73;;;;;;;19.61;100.00;99681.13;5049360;28;20262;-62
2022/06/20 08:28:56;;;;;;;3.13;1.40;;;;;;;19.26;100.00;99678.41;5051945;28;20253;-63
2022/06/20 08:31:33;;;;;;;1.40;1.30;;;;;;;19.20;99.53;99671.19;5051990;28;20287;-62
2022/06/20 08:34:08;;;;;;;0.80;0.80;;;;;;;18.99;96.08;99679.31;5053181;28;20222;-62
2022/06/20 08:36:45;;;;;;;1.20;1.00;;;;;;;18.98;96.42;99688.94;5049750;28;20208;-61
2022/06/20 08:39:27;;;;;;;0.80;0.80;;;;;;;18.70;96.37;99701.16;5051511;28;20247;-61
2022/06/20 08:42:23;;;;;;;2.10;0.77;;;;;;;18.64;96.38;99714.75;5033148;28;20221;-61
2022/06/20 08:45:13;;;;;;;0.90;0.80;;;;;;;18.84;95.44;99716.31;5048431;28;20181;-62
2022/06/20 08:47:47;;;;;;;1.03;0.70;;;;;;;18.66;93.79;99744.09;5050668;28;20219;-63
2022/06/20 08:50:21;;;;;;;1.37;1.00;;;;;;;18.42;95.74;99753.25;5041121;28;20173;-64
2022/06/20 08:53:05;;;;;;;1.03;0.93;;;;;;;18.30;97.72;99759.59;5040334;28;20282;-62
2022/06/20 08:56:25;;;;;;;1.10;1.00;;;;;;;18.12;99.28;99765.56;5046400;28;20181;-64
2022/06/20 08:59:08;;;;;;;0.90;0.77;;;;;;;18.31;97.80;99764.66;4967238;28;20199;-63
2022/06/20 09:01:47;;;;;;;0.90;0.90;;;;;;;18.43;95.78;99772.28;5028200;28;20226;-62
2022/06/20 09:04:31;;;;;;;0.93;0.93;;;;;;;18.20;96.71;99783.88;5054461;28;20181;-62
2022/06/20 09:07:05;;;;;;;5.60;0.90;;;;;;;18.19;98.08;99779.63;5049476;28;20182;-63
2022/06/20 09:09:39;;;;;;;0.60;0.60;;;;;;;18.16;96.77;99769.50;5048645;28;20191;-62
2022/06/20 09:12:15;;;;;;;1.63;0.80;;;;;;;18.29;93.54;99750.16;5034849;28;20217;-62
2022/06/20 09:15:09;;;;;;;2.50;1.00;;;;;;;18.46;93.59;99757.22;5042212;28;20289;-63
2022/06/20 09:17:59;;;;;;;0.70;0.60;;;;;;;18.58;90.22;99783.06;5052655;28;20646;-63
2022/06/20 09:21:02;;;;;;;0.73;0.70;;;;;;;18.27;90.32;99781.53;5045308;28;20236;-62
2022/06/20 09:23:46;;;;;;;3.07;0.70;;;;;;;18.06;92.70;99779.13;4973566;28;20200;-64
2022/06/20 09:26:53;;;;;;;0.77;0.77;;;;;;;18.19;91.69;99792.63;4978005;28;20224;-64
2022/06/20 09:29:21;;;;;;;0.70;0.70;;;;;;;18.28;90.79;99795.38;4985439;28;20698;-63
2022/06/20 09:32:14;;;;;;;1.07;0.80;;;;;;;18.27;90.32;99809.34;4977707;28;20236;-63
2022/06/20 09:34:48;;;;;;;0.83;0.83;;;;;;;17.97;91.89;99827.59;4983617;28;20200;-62
2022/06/20 09:37:35;;;;;;;1.10;0.73;;;;;;;17.87;92.58;99831.97;4976462;28;20293;-63
2022/06/20 09:40:21;;;;;;;1.10;1.00;;;;;;;17.85;93.50;99818.25;4988271;28;20243;-62
2022/06/20 09:43:24;;;;;;;0.80;0.80;;;;;;;17.83;93.12;99826.22;4969618;28;20365;-64
2022/06/20 09:46:05;;;;;;;1.03;1.03;;;;;;;18.04;89.63;99828.69;4978877;28;20201;-62
2022/06/20 09:49:01;;;;;;;1.33;1.23;;;;;;;18.09;88.91;99833.50;4983227;28;20270;-63
2022/06/20 09:51:43;;;;;;;1.70;1.40;;;;;;;18.18;87.45;99837.03;4975816;28;20274;-63
2022/06/20 09:54:12;;;;;;;1.63;1.53;;;;;;;18.43;87.17;99835.63;4989021;28;20188;-63
2022/06/20 09:56:52;;;;;;;3.73;1.70;;;;;;;18.81;83.50;99852.06;4993845;28;20231;-62
2022/06/20 09:59:39;;;;;;;1.63;1.53;;;;;;;18.69;84.16;99861.88;4987667;28;20189;-62
2022/06/20 10:02:50;;;;;;;2.20;2.00;;;;;;;18.33;84.78;99864.28;5023610;28;20237;-61
2022/06/20 10:05:46;;;;;;;2.20;2.00;;;;;;;18.38;85.62;99877.72;5016026;28;20194;-63
2022/06/20 10:08:19;;;;;;;2.30;2.10;;;;;;;18.14;86.36;99867.72;5052173;28;20200;-63
2022/06/20 10:10:57;;;;;;;2.07;1.90;;;;;;;18.19;84.96;99859.50;5038393;28;20261;-64
2022/06/20 10:13:40;;;;;;;2.07;1.97;;;;;;;18.23;85.21;99860.88;5050292;28;20212;-64
2022/06/20 10:16:30;;;;;;;2.33;2.13;;;;;;;18.23;85.05;99863.47;5052534;28;20282;-62
2022/06/20 10:19:08;;;;;;;2.60;1.97;;;;;;;18.15;85.17;99856.34;5048356;28;20656;-64
2022/06/20 10:21:50;;;;;;;2.53;2.03;;;;;;;18.16;84.43;99857.16;5033913;28;20221;-63
2022/06/20 10:24:59;;;;;;;2.50;2.20;;;;;;;17.99;85.10;99861.31;5049452;28;20304;-64
2022/06/20 10:27:49;;;;;;;2.10;1.90;;;;;;;18.06;86.33;99868.44;5055427;28;20185;-63
2022/06/20 10:30:19;;;;;;;2.90;2.07;;;;;;;18.17;84.84;99866.63;5043585;28;20255;-62
2022/06/20 10:33:26;;;;;;;1.90;1.80;;;;;;;18.10;83.74;99876.78;5058834;28;20271;-64
2022/06/20 10:36:06;;;;;;;1.73;1.63;;;;;;;17.97;83.96;99877.03;5057303;28;20707;-63
2022/06/20 10:38:39;;;;;;;2.13;1.93;;;;;;;17.99;84.39;99876.94;5043667;28;20217;-63
2022/06/20 10:41:08;;;;;;;2.20;2.00;;;;;;;17.63;86.38;99879.22;5040893;28;20229;-63
2022/06/20 10:43:42;;;;;;;2.00;1.80;;;;;;;17.80;86.46;99890.69;5052067;28;20538;-64
2022/06/20 10:46:11;;;;;;;2.10;1.83;;;;;;;18.11;84.05;99883.63;5053028;28;20254;-63
2022/06/20 10:48:53;;;;;;;2.33;2.13;;;;;;;18.34;82.08;99894.56;5051972;28;20189;-66
2022/06/20 10:51:29;;;;;;;3.83;2.00;;;;;;;18.17;83.32;99901.31;5036590;28;20275;-64
2022/06/20 10:54:19;;;;;;;3.67;2.10;;;;;;;18.14;82.70;99903.34;5041897;28;20236;-63
2022/06/20 10:57:04;;;;;;;1.70;1.60;;;;;;;17.96;84.92;99921.44;5066000;28;20181;-64
2022/06/20 11:03:20;;;;;;;1.90;1.70;;;;;;;17.98;84.82;99928.13;5010152;28;20240;-64
2022/06/20 11:06:03;;;;;;;3.10;1.90;;;;;;;17.92;85.90;99933.84;5048071;28;20204;-63
2022/06/20 11:08:57;;;;;;;1.63;1.53;;;;;;;17.95;86.42;99938.00;5056326;28;20255;-63
2022/06/20 11:11:30;;;;;;;1.97;1.73;;;;;;;17.87;86.33;99947.28;5033101;28;20225;-65
2022/06/20 11:14:23;;;;;;;1.53;1.40;;;;;;;17.83;86.22;99940.69;5047298;28;20217;-63
2022/06/20 11:17:17;;;;;;;1.37;1.27;;;;;;;17.19;89.48;99949.66;5028960;28;20693;-64
2022/06/20 11:20:20;;;;;;;1.73;1.50;;;;;;;17.25;91.74;99950.00;5050124;28;20188;-62
2022/06/20 11:22:51;;;;;;;1.40;1.30;;;;;;;17.40;91.44;99953.06;5040897;28;20290;-63
2022/06/20 11:25:28;;;;;;;1.30;1.20;;;;;;;17.48;87.38;99941.19;5052723;28;20225;-63
2022/06/20 11:28:11;;;;;;;4.03;1.23;;;;;;;17.41;86.03;99946.91;5052112;28;20651;-63
2022/06/20 11:30:49;;;;;;;1.20;1.10;;;;;;;17.64;86.12;99938.88;5021875;28;20256;-63
2022/06/20 11:34:00;;;;;;;1.93;1.10;;;;;;;17.85;82.03;99948.34;5041074;28;20184;-64
2022/06/20 11:36:12;;;;;;;2.07;1.00;;;;;;;17.95;80.70;99951.00;5051954;28;20292;-68
2022/06/20 11:39:13;;;;;;;3.20;0.90;;;;;;;17.91;80.13;99947.81;5051121;28;20194;-63
2022/06/20 11:42:10;;;;;;;3.57;0.87;;;;;;;17.55;80.98;99957.88;5011804;28;20309;-64
2022/06/20 11:45:07;;;;;;;2.23;0.70;;;;;;;17.48;84.03;99956.78;5032290;28;20227;-64
2022/06/20 11:47:47;;;;;;;1.40;1.00;;;;;;;17.49;83.59;99959.25;5046127;28;20216;-63
2022/06/20 11:50:28;;;;;;;0.77;0.77;;;;;;;17.63;81.47;99970.22;5048469;28;20628;-63
2022/06/20 11:52:56;;;;;;;1.27;1.17;;;;;;;17.00;82.14;99956.41;5046948;28;20181;-63
2022/06/20 11:55:28;;;;;;;1.17;0.97;;;;;;;17.06;84.34;99957.69;5052986;28;20208;-63
2022/06/20 11:58:24;;;;;;;0.80;0.80;;;;;;;17.17;81.55;99978.41;5049234;28;20185;-62
2022/06/20 12:01:00;;;;;;;1.50;1.07;;;;;;;17.48;80.17;99983.59;5036293;28;20233;-62
2022/06/20 12:03:34;;;;;;;1.70;0.67;;;;;;;17.48;79.17;99986.19;5040779;28;20290;-63
2022/06/20 12:06:23;;;;;;;1.07;0.70;;;;;;;17.71;77.88;99991.19;5051278;28;20226;-64
2022/06/20 12:09:17;;;;;;;1.63;0.80;;;;;;;17.77;76.67;100002.84;5051793;28;20205;-63
2022/06/20 12:12:20;;;;;;;1.83;0.90;;;;;;;17.89;76.50;100004.38;5026954;28;20233;-63
2022/06/20 12:15:14;;;;;;;0.73;0.73;;;;;;;18.04;74.82;100003.06;5044201;28;20195;-64
2022/06/20 12:17:47;;;;;;;0.60;0.60;;;;;;;18.58;72.90;100005.31;5049043;28;20197;-64
2022/06/20 12:23:21;;;;;;;1.37;0.80;;;;;;;18.78;66.69;100018.28;5061516;28;20281;-64
2022/06/20 12:26:06;;;;;;;1.20;0.70;;;;;;;18.64;66.43;100009.97;5050033;28;20232;-65
2022/06/20 12:28:35;;;;;;;3.13;1.17;;;;;;;18.55;66.93;99995.16;5051923;28;20199;-64
2022/06/20 12:31:11;;;;;;;0.80;0.80;;;;;;;18.70;66.00;99979.91;5049009;28;20290;-65
2022/06/20 12:33:48;;;;;;;1.80;0.60;;;;;;;18.90;64.69;99983.31;5057705;28;20183;-63